createdAt,value
2017-08-05T00:00:03.061Z,49.80
2017-08-05T00:02:30.322Z,49.70
2017-08-05T00:04:56.870Z,49.80
2017-08-05T00:07:23.393Z,49.50
2017-08-05T00:09:49.881Z,49.90
2017-08-05T00:12:16.462Z,49.10
2017-08-05T00:14:42.957Z,49.00
2017-08-05T00:17:09.523Z,49.40
2017-08-05T00:19:36.097Z,49.60
2017-08-05T00:22:02.614Z,50.20
2017-08-05T00:24:29.146Z,49.50
2017-08-05T00:26:55.638Z,49.70
2017-08-05T00:29:22.151Z,49.50
2017-08-05T00:31:48.690Z,50.30
2017-08-05T00:34:15.223Z,49.60
2017-08-05T00:36:41.708Z,50.20
2017-08-05T00:39:08.250Z,50.20
2017-08-05T00:41:34.656Z,50.20
2017-08-05T00:44:01.366Z,49.90
2017-08-05T00:46:28.270Z,49.70
2017-08-05T00:48:55.586Z,50.70
2017-08-05T00:51:22.107Z,50.20
2017-08-05T00:53:48.665Z,50.60
2017-08-05T00:56:16.265Z,50.20
2017-08-05T00:58:42.766Z,50.20
2017-08-05T01:01:09.291Z,50.10
2017-08-05T01:03:35.825Z,50.80
2017-08-05T01:06:02.324Z,50.50
2017-08-05T01:08:28.790Z,50.00
2017-08-05T01:10:55.430Z,49.60
2017-08-05T01:13:22.222Z,50.00
2017-08-05T01:15:48.720Z,50.00
2017-08-05T01:18:15.235Z,50.00
2017-08-05T01:20:42.412Z,50.00
2017-08-05T01:23:08.984Z,50.00
2017-08-05T01:25:36.330Z,50.20
2017-08-05T01:28:02.844Z,49.80
2017-08-05T01:30:29.417Z,49.80
2017-08-05T01:32:56.416Z,50.60
2017-08-05T01:35:23.711Z,50.00
2017-08-05T01:37:50.207Z,49.90
2017-08-05T01:40:16.750Z,50.60
2017-08-05T01:42:43.282Z,51.70
2017-08-05T01:45:09.815Z,50.50
2017-08-05T01:47:36.346Z,50.30
2017-08-05T01:50:02.905Z,50.50
2017-08-05T01:52:29.442Z,50.40
2017-08-05T01:54:55.985Z,50.80
2017-08-05T01:57:22.441Z,50.20
2017-08-05T01:59:49.029Z,50.50
2017-08-05T02:02:15.659Z,50.40
2017-08-05T02:04:42.210Z,51.40
2017-08-05T02:07:08.710Z,50.50
2017-08-05T02:09:35.243Z,50.10
2017-08-05T02:12:02.549Z,50.00
2017-08-05T02:14:30.229Z,49.20
2017-08-05T02:16:56.769Z,49.30
2017-08-05T02:19:23.263Z,49.60
2017-08-05T02:21:49.869Z,49.30
2017-08-05T02:24:16.398Z,49.30
2017-08-05T02:26:42.948Z,49.60
2017-08-05T02:29:09.517Z,50.00
2017-08-05T02:31:36.046Z,50.20
2017-08-05T02:34:02.681Z,51.20
2017-08-05T02:36:29.942Z,52.50
2017-08-05T02:38:57.229Z,51.80
2017-08-05T02:41:23.751Z,51.70
2017-08-05T02:43:50.702Z,51.90
2017-08-05T02:46:17.035Z,51.80
2017-08-05T02:48:43.544Z,50.50
2017-08-05T02:51:10.057Z,50.60
2017-08-05T02:53:36.576Z,49.70
2017-08-05T02:56:03.205Z,49.40
2017-08-05T02:58:29.743Z,51.00
2017-08-05T03:00:56.253Z,52.00
2017-08-05T03:03:22.889Z,53.20
2017-08-05T03:05:49.398Z,53.40
2017-08-05T03:08:15.988Z,54.50
2017-08-05T03:10:42.399Z,55.30
2017-08-05T03:13:08.949Z,58.40
2017-08-05T03:15:35.445Z,59.90
2017-08-05T03:18:02.044Z,60.60
2017-08-05T03:20:28.543Z,62.20
2017-08-05T03:22:55.288Z,63.50
2017-08-05T03:25:21.797Z,65.10
2017-08-05T03:27:48.341Z,66.10
2017-08-05T03:30:14.893Z,67.50
2017-08-05T03:32:42.116Z,69.20
2017-08-05T03:35:17.389Z,69.10
2017-08-05T03:37:43.666Z,70.10
2017-08-05T03:40:09.953Z,71.30
2017-08-05T03:42:36.240Z,72.20
2017-08-05T03:45:02.651Z,73.20
2017-08-05T03:47:28.937Z,72.40
2017-08-05T03:49:55.414Z,73.60
2017-08-05T03:52:21.703Z,74.20
2017-08-05T03:54:47.977Z,75.50
2017-08-05T03:57:14.278Z,75.30
2017-08-05T03:59:41.101Z,76.20
2017-08-05T04:02:07.385Z,75.70
2017-08-05T04:04:33.676Z,76.00
2017-08-05T04:06:59.961Z,76.00
2017-08-05T04:09:26.260Z,75.90
2017-08-05T04:11:52.790Z,75.20
2017-08-05T04:14:19.293Z,75.10
2017-08-05T04:16:45.880Z,75.30
2017-08-05T04:19:12.394Z,75.10
2017-08-05T04:21:45.818Z,76.00
2017-08-05T04:24:12.135Z,79.10
2017-08-05T04:26:38.430Z,77.40
2017-08-05T04:29:04.822Z,77.50
2017-08-05T04:31:37.966Z,76.90
2017-08-05T04:34:04.235Z,77.90
2017-08-05T04:36:30.492Z,77.60
2017-08-05T04:38:57.506Z,77.10
2017-08-05T04:41:23.840Z,77.10
2017-08-05T04:46:21.435Z,78.70
2017-08-05T04:48:47.744Z,79.00
2017-08-05T04:51:14.038Z,77.00
2017-08-05T04:53:40.402Z,77.40
2017-08-05T04:56:06.830Z,77.00
2017-08-05T04:58:33.118Z,77.70
2017-08-05T05:00:59.427Z,78.10
2017-08-05T05:03:25.728Z,77.20
2017-08-05T05:05:52.001Z,76.70
2017-08-05T05:08:18.286Z,79.10
2017-08-05T05:10:44.561Z,79.80
2017-08-05T05:13:10.835Z,75.80
2017-08-05T05:15:37.117Z,79.00
2017-08-05T05:18:03.431Z,81.40
2017-08-05T05:20:29.740Z,81.10
2017-08-05T05:22:56.003Z,80.50
2017-08-05T05:25:22.312Z,80.80
2017-08-05T05:27:48.597Z,84.00
2017-08-05T05:30:14.906Z,83.80
2017-08-05T05:32:41.226Z,80.60
2017-08-05T05:35:07.485Z,79.20
2017-08-05T05:37:33.786Z,78.20
2017-08-05T05:40:00.066Z,78.80
2017-08-05T05:42:26.314Z,80.60
2017-08-05T05:44:53.445Z,82.30
2017-08-05T05:47:19.725Z,81.40
2017-08-05T05:49:45.985Z,81.20
2017-08-05T05:52:12.301Z,83.30
2017-08-05T05:54:38.590Z,80.30
2017-08-05T05:57:04.860Z,84.90
2017-08-05T05:59:31.142Z,85.30
2017-08-05T06:01:58.216Z,81.70
2017-08-05T06:04:24.547Z,81.50
2017-08-05T06:06:50.870Z,79.90
2017-08-05T06:09:17.201Z,82.50
2017-08-05T06:11:43.717Z,84.30
2017-08-05T06:14:10.234Z,86.80
2017-08-05T06:16:40.094Z,84.60
2017-08-05T06:19:06.602Z,82.90
2017-08-05T06:21:33.146Z,80.50
2017-08-05T06:24:00.146Z,82.40
2017-08-05T06:26:26.674Z,84.50
2017-08-05T06:28:53.155Z,86.00
2017-08-05T06:31:19.736Z,83.90
2017-08-05T06:33:46.391Z,83.90
2017-08-05T06:36:12.881Z,84.10
2017-08-05T06:38:39.404Z,84.50
2017-08-05T06:41:05.921Z,83.60
2017-08-05T06:43:32.372Z,84.10
2017-08-05T06:45:58.917Z,84.00
2017-08-05T06:48:25.475Z,84.60
2017-08-05T06:50:51.998Z,84.50
2017-08-05T06:53:18.523Z,82.60
2017-08-05T06:55:45.068Z,82.40
2017-08-05T06:58:11.505Z,82.90
2017-08-05T07:00:39.173Z,83.50
2017-08-05T07:03:05.680Z,83.50
2017-08-05T07:05:32.175Z,83.20
2017-08-05T07:07:58.817Z,83.90
2017-08-05T07:10:25.309Z,85.70
2017-08-05T07:12:53.205Z,81.60
2017-08-05T07:15:19.768Z,81.60
2017-08-05T07:17:46.287Z,84.20
2017-08-05T07:20:12.868Z,86.10
2017-08-05T07:22:39.345Z,83.20
2017-08-05T07:25:06.599Z,83.50
2017-08-05T07:27:33.137Z,83.40
2017-08-05T07:29:59.672Z,82.70
2017-08-05T07:32:26.247Z,83.70
2017-08-05T07:34:53.077Z,83.50
2017-08-05T07:37:19.565Z,83.80
2017-08-05T07:39:46.029Z,84.60
2017-08-05T07:42:12.519Z,82.80
2017-08-05T07:44:39.030Z,81.30
2017-08-05T07:47:05.636Z,83.50
2017-08-05T07:49:32.088Z,83.90
2017-08-05T07:51:58.594Z,84.90
2017-08-05T07:54:25.057Z,84.40
2017-08-05T07:56:51.574Z,85.40
2017-08-05T07:59:18.126Z,86.40
2017-08-05T08:01:44.670Z,86.70
2017-08-05T08:04:11.171Z,84.60
2017-08-05T08:06:37.645Z,85.30
2017-08-05T08:09:05.441Z,85.10
2017-08-05T08:11:31.908Z,85.10
2017-08-05T08:13:58.887Z,85.00
2017-08-05T08:16:25.481Z,83.70
2017-08-05T08:18:52.033Z,84.60
2017-08-05T08:21:18.519Z,83.20
2017-08-05T08:23:45.057Z,86.40
2017-08-05T08:26:12.345Z,86.20
2017-08-05T08:28:38.873Z,85.40
2017-08-05T08:31:05.376Z,84.30
2017-08-05T08:33:31.934Z,84.10
2017-08-05T08:35:58.428Z,85.50
2017-08-05T08:38:24.926Z,84.70
2017-08-05T08:40:51.459Z,85.30
2017-08-05T08:43:18.704Z,84.20
2017-08-05T08:45:46.412Z,84.30
2017-08-05T08:48:12.946Z,84.30
2017-08-05T08:50:39.454Z,86.30
2017-08-05T08:53:05.892Z,86.40
2017-08-05T08:55:32.409Z,84.50
2017-08-05T08:57:58.933Z,84.00
2017-08-05T09:00:26.246Z,87.50
2017-08-05T09:02:52.771Z,87.50
2017-08-05T09:05:19.324Z,87.50
2017-08-05T09:07:45.834Z,86.20
2017-08-05T09:10:12.680Z,87.50
2017-08-05T09:12:39.195Z,85.10
2017-08-05T09:15:05.777Z,81.20
2017-08-05T09:17:32.249Z,85.30
2017-08-05T09:19:58.784Z,85.50
2017-08-05T09:22:26.009Z,84.40
2017-08-05T09:24:52.601Z,83.90
2017-08-05T09:27:19.233Z,81.60
2017-08-05T09:29:45.689Z,81.00
2017-08-05T09:32:12.581Z,81.40
2017-08-05T09:34:39.116Z,81.70
2017-08-05T09:37:05.610Z,79.80
2017-08-05T09:39:32.839Z,82.10
2017-08-05T09:41:59.345Z,82.10
2017-08-05T09:44:25.830Z,81.90
2017-08-05T09:46:52.331Z,81.10
2017-08-05T09:49:18.840Z,85.10
2017-08-05T09:51:45.355Z,82.60
2017-08-05T09:54:11.913Z,81.30
2017-08-05T09:56:38.521Z,79.40
2017-08-05T09:59:05.040Z,79.30
2017-08-05T10:01:31.525Z,78.70
2017-08-05T10:03:58.044Z,81.40
2017-08-05T10:06:24.548Z,78.70
2017-08-05T10:08:51.054Z,80.00
2017-08-05T10:11:17.576Z,78.40
2017-08-05T10:13:44.138Z,79.00
2017-08-05T10:16:10.638Z,80.80
2017-08-05T10:18:37.151Z,81.20
2017-08-05T10:21:03.656Z,81.30
2017-08-05T10:23:30.150Z,80.30
2017-08-05T10:26:01.572Z,79.10
2017-08-05T10:28:28.026Z,81.20
2017-08-05T10:30:54.498Z,80.50
2017-08-05T10:33:22.561Z,79.50
2017-08-05T10:35:53.745Z,79.40
2017-08-05T10:38:20.342Z,79.80
2017-08-05T10:40:46.990Z,78.50
2017-08-05T10:43:13.850Z,77.90
2017-08-05T10:45:40.317Z,77.30
2017-08-05T10:48:06.862Z,79.50
2017-08-05T10:50:33.346Z,81.10
2017-08-05T10:52:59.790Z,78.40
2017-08-05T10:55:28.498Z,78.40
2017-08-05T10:57:55.032Z,79.20
2017-08-05T11:00:27.552Z,79.60
2017-08-05T11:02:54.815Z,80.70
2017-08-05T11:05:21.273Z,80.60
2017-08-05T11:07:47.750Z,82.20
2017-08-05T11:10:14.233Z,82.00
2017-08-05T11:12:41.569Z,79.50
2017-08-05T11:15:09.259Z,79.30
2017-08-05T11:17:35.798Z,80.20
2017-08-05T11:20:02.358Z,81.00
2017-08-05T11:22:28.879Z,82.70
2017-08-05T11:24:55.350Z,78.70
2017-08-05T11:27:21.857Z,81.80
2017-08-05T11:29:50.018Z,81.30
2017-08-05T11:32:16.429Z,79.10
2017-08-05T11:34:42.921Z,80.80
2017-08-05T11:37:09.707Z,78.90
2017-08-05T11:39:36.221Z,78.70
2017-08-05T11:42:02.689Z,78.60
2017-08-05T11:44:30.083Z,76.90
2017-08-05T11:46:56.653Z,77.00
2017-08-05T11:49:24.094Z,77.20
2017-08-05T11:51:55.086Z,77.20
2017-08-05T11:54:21.588Z,77.50
2017-08-05T11:56:48.087Z,77.60
2017-08-05T11:59:14.602Z,74.70
2017-08-05T12:01:41.150Z,75.00
2017-08-05T12:04:07.638Z,76.60
2017-08-05T12:06:34.109Z,75.10
2017-08-05T12:09:01.402Z,78.90
2017-08-05T12:11:28.369Z,78.90
2017-08-05T12:13:54.845Z,76.60
2017-08-05T12:16:23.683Z,77.40
2017-08-05T12:18:50.242Z,75.20
2017-08-05T12:21:16.719Z,77.20
2017-08-05T12:23:43.234Z,77.80
2017-08-05T12:26:10.947Z,76.70
2017-08-05T12:28:37.439Z,76.20
2017-08-05T12:31:03.949Z,74.30
2017-08-05T12:33:32.609Z,75.10
2017-08-05T12:35:59.107Z,77.00
2017-08-05T12:38:25.675Z,78.60
2017-08-05T12:40:52.457Z,78.30
2017-08-05T12:43:19.288Z,81.10
2017-08-05T12:45:45.895Z,80.20
2017-08-05T12:48:12.420Z,75.90
2017-08-05T12:50:38.934Z,73.60
2017-08-05T12:53:06.205Z,75.00
2017-08-05T12:55:33.468Z,75.70
2017-08-05T12:57:59.978Z,75.60
2017-08-05T13:00:26.593Z,71.10
2017-08-05T13:02:53.303Z,69.90
2017-08-05T13:05:19.832Z,70.40
2017-08-05T13:07:46.481Z,70.60
2017-08-05T13:10:13.010Z,68.40
2017-08-05T13:12:39.526Z,69.80
2017-08-05T13:15:06.063Z,72.50
2017-08-05T13:17:32.598Z,70.00
2017-08-05T13:19:59.922Z,66.10
2017-08-05T13:22:26.441Z,66.30
2017-08-05T13:24:52.917Z,67.40
2017-08-05T13:27:21.070Z,66.70
2017-08-05T13:29:47.535Z,65.80
2017-08-05T13:32:14.022Z,61.80
2017-08-05T13:34:40.578Z,62.20
2017-08-05T13:37:07.069Z,63.40
2017-08-05T13:39:33.543Z,64.60
2017-08-05T13:42:00.033Z,65.20
2017-08-05T13:44:27.265Z,63.10
2017-08-05T13:46:53.760Z,63.10
2017-08-05T13:49:20.277Z,64.40
2017-08-05T13:51:46.749Z,64.90
2017-08-05T13:54:13.461Z,65.70
2017-08-05T13:56:40.278Z,64.20
2017-08-05T13:59:07.274Z,64.30
2017-08-05T14:01:33.880Z,67.30
2017-08-05T14:04:00.576Z,62.40
2017-08-05T14:06:28.165Z,58.20
2017-08-05T14:08:54.741Z,58.00
2017-08-05T14:11:21.201Z,61.70
2017-08-05T14:13:47.705Z,59.90
2017-08-05T14:16:14.224Z,57.20
2017-08-05T14:18:40.769Z,59.80
2017-08-05T14:21:07.315Z,55.10
2017-08-05T14:23:34.695Z,55.50
2017-08-05T14:26:01.251Z,55.40
2017-08-05T14:28:31.275Z,52.80
2017-08-05T14:30:59.030Z,51.50
2017-08-05T14:33:25.587Z,52.70
2017-08-05T14:35:52.070Z,52.50
2017-08-05T14:38:18.548Z,51.40
2017-08-05T14:40:45.070Z,50.90
2017-08-05T14:43:15.175Z,54.30
2017-08-05T14:45:41.665Z,54.70
2017-08-05T14:48:08.332Z,53.30
2017-08-05T14:50:34.861Z,57.10
2017-08-05T14:53:01.515Z,52.50
2017-08-05T14:55:28.834Z,51.70
2017-08-05T14:57:56.257Z,50.30
2017-08-05T15:00:24.000Z,51.20
2017-08-05T15:02:50.744Z,51.80
2017-08-05T15:05:17.261Z,51.20
2017-08-05T15:07:43.747Z,53.50
2017-08-05T15:10:11.806Z,53.40
2017-08-05T15:12:38.399Z,52.50
2017-08-05T15:15:04.937Z,53.00
2017-08-05T15:17:31.446Z,56.00
2017-08-05T15:19:57.946Z,55.60
2017-08-05T15:22:24.502Z,56.50
2017-08-05T15:24:50.983Z,57.10
2017-08-05T15:27:17.513Z,57.80
2017-08-05T15:29:44.130Z,61.10
2017-08-05T15:32:11.135Z,65.80
2017-08-05T15:34:37.652Z,66.70
2017-08-05T15:37:04.174Z,66.80
2017-08-05T15:39:30.719Z,71.50
2017-08-05T15:41:57.286Z,72.90
2017-08-05T15:44:23.804Z,74.20
2017-08-05T15:46:50.361Z,75.40
2017-08-05T15:49:17.665Z,80.80
2017-08-05T15:51:44.285Z,80.70
2017-08-05T15:54:14.073Z,82.00
2017-08-05T15:56:40.634Z,80.50
2017-08-05T15:59:19.503Z,79.00
2017-08-05T16:01:46.022Z,81.10
2017-08-05T16:04:14.306Z,81.90
2017-08-05T16:06:40.786Z,78.60
2017-08-05T16:09:07.286Z,79.40
2017-08-05T16:11:34.549Z,80.20
2017-08-05T16:14:01.117Z,80.10
2017-08-05T16:16:27.727Z,80.20
2017-08-05T16:18:57.539Z,78.80
2017-08-05T16:21:23.968Z,80.10
2017-08-05T16:23:51.550Z,78.80
2017-08-05T16:26:18.131Z,76.20
2017-08-05T16:28:44.597Z,76.90
2017-08-05T16:31:11.133Z,79.40
2017-08-05T16:33:41.251Z,79.50
2017-08-05T16:36:07.765Z,76.50
2017-08-05T16:38:34.260Z,77.60
2017-08-05T16:41:00.927Z,74.90
2017-08-05T16:43:27.503Z,77.20
2017-08-05T16:45:55.186Z,76.80
2017-08-05T16:48:23.098Z,76.60
2017-08-05T16:50:49.617Z,75.90
2017-08-05T16:53:16.137Z,76.60
2017-08-05T16:55:42.665Z,75.20
2017-08-05T16:58:09.182Z,74.30
2017-08-05T17:00:35.711Z,71.50
2017-08-05T17:03:02.366Z,74.70
2017-08-05T17:05:28.873Z,73.40
2017-08-05T17:07:58.769Z,72.20
2017-08-05T17:10:25.334Z,71.50
2017-08-05T17:12:51.770Z,72.40
2017-08-05T17:15:18.305Z,71.70
2017-08-05T17:17:44.796Z,73.60
2017-08-05T17:20:12.016Z,73.00
2017-08-05T17:22:42.969Z,73.50
2017-08-05T17:25:09.526Z,72.00
2017-08-05T17:27:35.991Z,71.70
2017-08-05T17:30:02.636Z,73.80
2017-08-05T17:32:29.136Z,70.80
2017-08-05T17:34:55.685Z,72.30
2017-08-05T17:37:22.236Z,71.70
2017-08-05T17:39:48.709Z,71.00
2017-08-05T17:42:19.193Z,71.60
2017-08-05T17:44:47.218Z,72.20
2017-08-05T17:47:13.682Z,70.90
2017-08-05T17:49:40.204Z,72.20
2017-08-05T17:52:07.449Z,71.90
2017-08-05T17:54:33.970Z,71.80
2017-08-05T17:57:00.454Z,71.60
2017-08-05T17:59:27.741Z,71.10
2017-08-05T18:01:57.611Z,71.10
2017-08-05T18:04:24.303Z,72.60
2017-08-05T18:06:50.779Z,73.20
2017-08-05T18:09:17.303Z,72.80
2017-08-05T18:11:43.782Z,72.90
2017-08-05T18:14:11.025Z,73.30
2017-08-05T18:16:37.413Z,72.60
2017-08-05T18:19:03.890Z,72.50
2017-08-05T18:21:33.725Z,71.60
2017-08-05T18:24:00.201Z,71.60
2017-08-05T18:26:26.755Z,70.10
2017-08-05T18:28:53.299Z,70.00
2017-08-05T18:31:19.796Z,70.80
2017-08-05T18:33:46.297Z,71.20
2017-08-05T18:36:12.809Z,72.50
2017-08-05T18:38:39.321Z,72.60
2017-08-05T18:41:09.064Z,72.50
2017-08-05T18:43:35.550Z,72.60
2017-08-05T18:46:02.120Z,72.40
2017-08-05T18:48:28.708Z,72.70
2017-08-05T18:50:55.221Z,72.60
2017-08-05T18:53:22.690Z,72.00
2017-08-05T18:55:49.200Z,71.90
2017-08-05T18:58:18.011Z,71.00
2017-08-05T19:00:45.294Z,71.70
2017-08-05T19:03:11.828Z,70.90
2017-08-05T19:05:38.309Z,70.60
2017-08-05T19:08:05.130Z,70.90
2017-08-05T19:10:31.659Z,71.00
2017-08-05T19:12:58.210Z,70.90
2017-08-05T19:15:24.733Z,71.30
2017-08-05T19:17:53.321Z,70.50
2017-08-05T19:20:19.830Z,71.20
2017-08-05T19:22:46.368Z,70.80
2017-08-05T19:25:12.887Z,70.70
2017-08-05T19:27:39.382Z,70.70
2017-08-05T19:30:05.885Z,71.10
2017-08-05T19:35:03.840Z,72.10
2017-08-05T19:37:30.381Z,70.60
2017-08-05T19:39:56.849Z,71.90
2017-08-05T19:42:23.469Z,71.70
2017-08-05T19:44:50.058Z,72.00
2017-08-05T19:47:16.619Z,73.00
2017-08-05T19:49:48.090Z,72.70
2017-08-05T19:52:14.604Z,71.90
2017-08-05T19:54:41.078Z,73.70
2017-08-05T19:57:07.570Z,72.60
2017-08-05T19:59:34.065Z,71.90
2017-08-05T20:02:00.593Z,73.30
2017-08-05T20:04:27.106Z,73.70
2017-08-05T20:06:54.358Z,73.20
2017-08-05T20:09:20.889Z,73.20
2017-08-05T20:11:48.144Z,73.40
2017-08-05T20:14:14.641Z,73.40
2017-08-05T20:16:41.293Z,73.00
2017-08-05T20:19:08.592Z,73.70
2017-08-05T20:21:40.614Z,73.40
2017-08-05T20:24:07.142Z,73.40
2017-08-05T20:26:33.668Z,73.10
2017-08-05T20:29:00.921Z,72.90
2017-08-05T20:31:28.173Z,72.30
2017-08-05T20:33:54.682Z,72.20
2017-08-05T20:36:21.186Z,73.20
2017-08-05T20:38:53.034Z,72.90
2017-08-05T20:41:19.500Z,72.50
2017-08-05T20:43:45.973Z,72.20
2017-08-05T20:46:12.450Z,72.20
2017-08-05T20:48:38.916Z,72.10
2017-08-05T20:51:05.410Z,72.40
2017-08-05T20:53:36.937Z,72.40
2017-08-05T20:56:03.439Z,72.70
2017-08-05T20:58:29.947Z,72.80
2017-08-05T21:00:56.421Z,72.70
2017-08-05T21:03:23.685Z,72.90
2017-08-05T21:05:50.186Z,72.70
2017-08-05T21:08:26.014Z,72.40
2017-08-05T21:10:52.554Z,72.30
2017-08-05T21:13:19.082Z,72.20
2017-08-05T21:15:45.554Z,72.50
2017-08-05T21:18:12.049Z,72.60
2017-08-05T21:20:38.511Z,72.40
2017-08-05T21:23:08.510Z,72.30
2017-08-05T21:25:35.740Z,72.70
2017-08-05T21:28:02.262Z,72.60
2017-08-05T21:30:28.873Z,72.60
2017-08-05T21:32:55.562Z,72.20
2017-08-05T21:35:22.070Z,72.50
2017-08-05T21:37:51.259Z,72.20
2017-08-05T21:40:17.750Z,72.00
2017-08-05T21:42:44.358Z,71.80
2017-08-05T21:45:11.784Z,71.10
2017-08-05T21:47:38.379Z,71.30
2017-08-05T21:50:04.926Z,71.70
2017-08-05T21:52:35.218Z,70.30
2017-08-05T21:55:01.868Z,71.00
2017-08-05T21:57:28.501Z,70.30
2017-08-05T21:59:54.997Z,70.90
2017-08-05T22:02:21.498Z,71.00
2017-08-05T22:04:48.002Z,70.30
2017-08-05T22:07:18.665Z,70.40
2017-08-05T22:09:45.197Z,70.40
2017-08-05T22:12:12.443Z,69.00
2017-08-05T22:14:39.708Z,70.30
2017-08-05T22:17:06.230Z,70.30
2017-08-05T22:19:32.722Z,70.20
2017-08-05T22:22:01.405Z,70.20
2017-08-05T22:24:27.882Z,70.20
2017-08-05T22:26:54.414Z,70.30
2017-08-05T22:29:20.922Z,70.00
2017-08-05T22:31:48.354Z,69.80
2017-08-05T22:34:14.837Z,69.10
2017-08-05T22:36:44.483Z,69.70
2017-08-05T22:39:10.988Z,67.60
2017-08-05T22:41:37.526Z,68.60
2017-08-05T22:44:04.807Z,68.90
2017-08-05T22:46:31.304Z,68.90
2017-08-05T22:48:58.563Z,69.10
2017-08-05T22:51:25.066Z,69.10
2017-08-05T22:53:51.578Z,69.70
2017-08-05T22:56:20.660Z,69.60
2017-08-05T22:58:47.240Z,69.50
2017-08-05T23:01:13.922Z,69.90
2017-08-05T23:03:40.442Z,69.30
2017-08-05T23:06:06.980Z,68.90
2017-08-05T23:08:33.455Z,69.60
2017-08-05T23:11:02.815Z,68.80
2017-08-05T23:13:29.425Z,68.80
2017-08-05T23:15:55.915Z,69.40
2017-08-05T23:18:23.176Z,69.10
2017-08-05T23:20:49.933Z,68.40
2017-08-05T23:25:55.493Z,67.20
2017-08-05T23:28:22.987Z,66.90
2017-08-05T23:30:49.527Z,66.90
2017-08-05T23:33:16.056Z,68.60
2017-08-05T23:35:42.591Z,68.50
2017-08-05T23:38:09.948Z,68.40
2017-08-05T23:40:39.531Z,68.50
2017-08-05T23:43:06.053Z,68.40
2017-08-05T23:45:32.658Z,68.60
2017-08-05T23:47:59.157Z,68.70
2017-08-05T23:50:26.538Z,68.50
2017-08-05T23:52:53.155Z,68.30
2017-08-05T23:55:19.679Z,69.00
2017-08-05T23:57:46.139Z,68.40
